Mountain Home, AR

3:29 PM CST on November 14, 2018 (GMT -0600)
Brookside | | Change Station
Active Advisory: Winter Weather Advisory

Elev 774 ft 36.34 °N, 92.37 °W | Updated 12 seconds ago

Snow
Snow
34.2 °F
Feels Like 31 °F
N
3.4
Wind Variable Wind from NE
Gusts 5.8 mph

Today
High -- | Low -- °F
--% Chance of Precip.
Yesterday
High -- | Low -- °F
Precip. -- in
Pressure 30.35 in
Visibility 10.0 miles
Clouds Few 6500 ft
Overcast 9000 ft
Windchill 31 °F
Dew Point 12 °F
Humidity 40%
Rainfall 0.00 in
Snow Depth Not available.
6:45 AM 5:01 PM
Waxing Crescent, 43% visible
METAR KBPK 142053Z AUTO 36005KT 10SM FEW065 OVC090 01/M12 A3032 RMK AO2 SLP275 T00111117 56036 TSNO
Pressure 30.35 in
Visibility 10.0 miles
Clouds Few 6500 ft
Overcast 9000 ft
Windchill 31 °F
Dew Point 12 °F
Humidity 40%
Rainfall 0.00 in
Snow Depth Not available.
6:45 AM 5:01 PM
Waxing Crescent, 43% visible
METAR KBPK 142053Z AUTO 36005KT 10SM FEW065 OVC090 01/M12 A3032 RMK AO2 SLP275 T00111117 56036 TSNO

Get Your Daily Forecast Email!

Thanks for signing up!

Be on the lookout for a verification email in your inbox.

You'll start receiving severe weather alerts in your inbox..

×

10-Day Weather Forecast

Almanac

Astronomy

Nov. 14, 2018 Rise Set
Actual Time
Civil Twilight
Nautical Twilight
Astronomical Twilight
Moon
Length of Visible Light
Length of Day
Tomorrow will be .
, % of the Moon is Illuminated

Today's Extremes

State Highs State Lows

Community

WunderPhotos

Category 6

Welcome to Category 6. This is the collective home for Weather Underground's featured writeups by Dr. Jeff Masters (right), Bob Henson (left), Chris Burt, and other regular contributors.

Nearby

Air Quality

  Air Quality AQ Index Pollutant
Not available.

Snow Depth

Station Depth Elevation

Earthquake Activity

City Distance Mag. Time & Date
Minimum magnitude displayed is 2.5.

Coastal Water Temperatures

Place Temperature

Stations

Nearby Weather Stations

Station Location Temp. Windchill Dew Point Humidity Wind Precip. Elev Updated Type
                   

Watches & Warnings

Winter Weather Advisory
Issued: 2:37 PM CST Nov. 14, 2018 – National Weather Service

... Winter Weather Advisory remains in effect until noon CST
Thursday...

* what... snow. Additional snow accumulations of 2 to 3 inches are
expected.

* Where... portions of central, eastern, north central and
northeast Arkansas.

* When... until noon CST Thursday.

* Additional details... plan on difficult travel conditions. Be
prepared for reduced visibilities at times.

Precautionary/preparedness actions...

A Winter Weather Advisory for snow means periods of snow will
cause primarily travel difficulties. Be prepared for snow covered
roads and limited visibilities, and use caution while driving. Be
sure to check Road conditions before traveling in these areas.
Visit the Arkansas department of transportation's website
idrivearkansas.Com for the latest Road and traffic conditions.